Time;durP1;ratioP1;P1;durP2;ratioP2;P2;SDS_P1;SDS_P2;PMS_P1;PMS_P2;Temp;Humidity;BMP_temperature;BMP_pressure;BME280_temperature;BME280_humidity;BME280_pressure;Samples;Min_cycle;Max_cycle;Signal;HPM_P1;HPM_P2
2022/01/27 00:02:44;;;;;;;9.82;5.95;;;20.50;32.70;;;;;;5054094;28;20432;-63
2022/01/27 00:05:24;;;;;;;8.98;5.95;;;20.60;32.70;;;;;;5052549;28;20398;-64
2022/01/27 00:13:01;;;;;;;8.43;6.03;;;20.50;32.60;;;;;;5053758;28;20420;-74
2022/01/27 00:15:32;;;;;;;8.52;6.03;;;20.50;32.60;;;;;;5053739;28;20393;-64
2022/01/27 00:18:02;;;;;;;9.00;5.90;;;20.50;32.60;;;;;;5035846;28;20405;-69
2022/01/27 00:20:28;;;;;;;8.63;6.18;;;20.50;32.60;;;;;;5035979;28;20447;-64
2022/01/27 00:22:54;;;;;;;8.07;6.20;;;20.50;32.60;;;;;;5053654;28;20424;-63
2022/01/27 00:25:20;;;;;;;7.85;5.65;;;20.50;32.60;;;;;;5053464;28;20381;-64
2022/01/27 00:27:46;;;;;;;8.50;6.03;;;20.50;32.60;;;;;;5053168;28;20386;-75
2022/01/27 00:30:12;;;;;;;8.23;6.32;;;20.50;32.60;;;;;;5053642;28;20892;-78
2022/01/27 00:32:38;;;;;;;7.80;6.05;;;20.50;32.60;;;;;;5035627;28;20932;-75
2022/01/27 00:35:05;;;;;;;8.52;6.20;;;20.50;32.60;;;;;;5035399;28;20414;-67
2022/01/27 00:37:30;;;;;;;8.25;6.05;;;20.50;32.60;;;;;;5052837;28;20381;-66
2022/01/27 00:39:56;;;;;;;8.43;5.82;;;20.50;32.60;;;;;;5053162;28;20425;-66
2022/01/27 00:42:24;;;;;;;8.45;6.00;;;20.50;32.50;;;;;;5053391;28;20413;-66
2022/01/27 00:44:49;;;;;;;8.43;5.93;;;20.50;32.60;;;;;;5053161;28;20409;-67
2022/01/27 00:47:15;;;;;;;8.05;5.82;;;20.50;32.60;;;;;;5052147;28;20389;-80
2022/01/27 00:49:41;;;;;;;8.47;6.23;;;20.50;32.60;;;;;;5052417;28;20487;-66
2022/01/27 00:52:10;;;;;;;8.13;5.80;;;20.50;32.60;;;;;;5053179;28;20450;-81
2022/01/27 00:54:36;;;;;;;9.35;5.97;;;20.40;32.50;;;;;;5053109;28;20897;-65
2022/01/27 00:57:15;;;;;;;8.20;6.03;;;20.40;32.60;;;;;;5053196;28;20385;-68
2022/01/27 01:02:38;;;;;;;8.32;6.03;;;20.40;32.50;;;;;;5052770;28;20401;-66
2022/01/27 01:07:54;;;;;;;8.88;6.30;;;20.40;32.50;;;;;;5052753;28;20764;-74
2022/01/27 01:15:49;;;;;;;7.50;5.80;;;20.40;32.50;;;;;;5052748;28;20377;-67
2022/01/27 01:18:41;;;;;;;7.20;5.75;;;20.40;32.50;;;;;;5052783;28;20397;-66
2022/01/27 01:21:32;;;;;;;8.07;6.07;;;20.40;32.60;;;;;;5050901;28;20992;-66
2022/01/27 01:32:30;;;;;;;7.60;5.85;;;20.40;32.60;;;;;;5032779;28;20429;-66
2022/01/27 01:34:58;;;;;;;8.95;5.78;;;20.40;32.60;;;;;;5034294;28;20932;-66
2022/01/27 01:37:24;;;;;;;7.75;5.82;;;20.40;32.60;;;;;;5052262;28;20386;-66
2022/01/27 01:39:49;;;;;;;8.05;5.90;;;20.40;32.60;;;;;;5051722;28;20405;-68
2022/01/27 01:42:15;;;;;;;7.90;5.87;;;20.40;32.50;;;;;;5052200;28;20381;-76
2022/01/27 01:44:41;;;;;;;7.97;5.95;;;20.40;32.60;;;;;;5051931;28;20398;-79
2022/01/27 01:47:07;;;;;;;7.68;5.80;;;20.40;32.60;;;;;;5034145;28;20393;-76
2022/01/27 01:49:33;;;;;;;7.43;5.80;;;20.30;32.50;;;;;;5051615;28;20417;-67
2022/01/27 01:52:05;;;;;;;6.95;5.38;;;20.40;32.50;;;;;;5033874;28;20826;-76
2022/01/27 01:54:32;;;;;;;6.93;5.68;;;20.30;32.50;;;;;;5052143;28;20392;-68
2022/01/27 01:56:57;;;;;;;7.80;5.70;;;20.40;32.50;;;;;;5051817;28;20397;-71
2022/01/27 01:59:23;;;;;;;7.03;5.68;;;20.30;32.50;;;;;;5051922;28;20386;-66
2022/01/27 02:01:49;;;;;;;7.47;5.70;;;20.40;32.50;;;;;;5051610;28;20916;-66
2022/01/27 02:04:15;;;;;;;7.82;6.00;;;20.40;32.50;;;;;;5051895;28;20385;-75
2022/01/27 02:06:57;;;;;;;8.00;5.88;;;20.30;32.50;;;;;;5051843;28;20480;-67
2022/01/27 02:20:23;;;;;;;7.97;5.97;;;20.30;32.40;;;;;;5051552;28;20404;-80
2022/01/27 02:22:49;;;;;;;7.75;5.60;;;20.30;32.50;;;;;;5051881;28;20440;-68
2022/01/27 02:25:15;;;;;;;7.47;5.67;;;20.20;32.40;;;;;;5051712;28;20877;-66
2022/01/27 02:27:40;;;;;;;7.95;6.05;;;20.30;32.50;;;;;;5051174;28;20472;-66
2022/01/27 02:30:07;;;;;;;7.10;5.53;;;20.20;32.40;;;;;;5051677;28;20417;-72
2022/01/27 02:32:32;;;;;;;6.78;5.50;;;20.20;32.40;;;;;;5051601;28;20797;-66
2022/01/27 02:34:59;;;;;;;7.43;5.70;;;20.20;32.40;;;;;;5051438;28;20404;-71
2022/01/27 02:37:25;;;;;;;7.63;5.90;;;20.20;32.40;;;;;;5051219;28;20388;-81
2022/01/27 02:39:51;;;;;;;7.25;5.70;;;20.20;32.50;;;;;;5033104;28;20484;-82
2022/01/27 02:42:25;;;;;;;6.88;5.18;;;20.20;32.50;;;;;;5051760;28;20377;-68
2022/01/27 02:45:11;;;;;;;6.80;5.63;;;20.20;32.50;;;;;;5051524;28;20389;-67
2022/01/27 02:47:37;;;;;;;7.03;5.50;;;20.20;32.50;;;;;;5051053;28;20900;-83
2022/01/27 02:50:04;;;;;;;7.63;5.70;;;20.20;32.50;;;;;;5050832;28;20409;-67
2022/01/27 02:52:30;;;;;;;7.15;5.50;;;20.20;32.40;;;;;;5051598;28;20408;-67
2022/01/27 02:54:55;;;;;;;8.33;5.87;;;20.20;32.50;;;;;;5051294;28;20435;-67
2022/01/27 02:57:22;;;;;;;6.97;5.60;;;20.20;32.50;;;;;;5051126;28;20412;-66
2022/01/27 02:59:48;;;;;;;8.87;5.87;;;20.20;32.40;;;;;;5050703;28;20439;-67
2022/01/27 03:02:14;;;;;;;7.13;5.80;;;20.20;32.40;;;;;;5050747;28;20396;-67
2022/01/27 03:04:39;;;;;;;8.10;5.90;;;20.20;32.40;;;;;;5051077;28;20386;-66
2022/01/27 03:07:06;;;;;;;7.57;5.90;;;20.20;32.40;;;;;;5051113;28;20439;-66
2022/01/27 03:09:33;;;;;;;8.07;5.95;;;20.20;32.40;;;;;;5052844;28;20908;-80
2022/01/27 03:12:11;;;;;;;8.65;6.03;;;20.20;32.40;;;;;;5054689;28;20390;-69
2022/01/27 03:14:38;;;;;;;8.17;5.77;;;20.20;32.40;;;;;;5037467;28;20414;-66
2022/01/27 03:17:05;;;;;;;7.78;5.95;;;20.20;32.50;;;;;;5037303;28;20394;-67
2022/01/27 03:19:31;;;;;;;6.78;5.50;;;20.20;32.40;;;;;;5037219;28;20396;-82
2022/01/27 03:21:57;;;;;;;6.68;5.60;;;20.20;32.40;;;;;;5054329;28;20393;-67
2022/01/27 03:24:24;;;;;;;7.43;5.45;;;20.20;32.40;;;;;;5054665;28;20873;-80
2022/01/27 03:26:51;;;;;;;7.18;5.03;;;20.20;32.40;;;;;;5055062;28;20401;-80
2022/01/27 03:29:18;;;;;;;7.55;5.93;;;20.20;32.50;;;;;;5054766;28;20432;-66
2022/01/27 03:31:45;;;;;;;7.13;5.50;;;20.20;32.40;;;;;;5054329;28;20481;-66
2022/01/27 03:34:11;;;;;;;7.40;5.57;;;20.20;32.40;;;;;;5054385;28;20479;-66
2022/01/27 03:36:37;;;;;;;7.50;5.97;;;20.20;32.40;;;;;;5054443;28;20480;-66
2022/01/27 03:39:05;;;;;;;7.10;5.47;;;20.20;32.40;;;;;;5054495;28;20477;-81
2022/01/27 03:41:35;;;;;;;7.20;5.63;;;20.10;32.40;;;;;;5054563;28;20869;-67
2022/01/27 03:44:02;;;;;;;7.20;5.55;;;20.10;32.40;;;;;;5054132;28;20400;-79
2022/01/27 03:46:28;;;;;;;7.65;6.00;;;20.20;32.40;;;;;;5054311;28;20373;-66
2022/01/27 03:48:54;;;;;;;8.03;5.93;;;20.10;32.40;;;;;;5036301;28;20527;-67
2022/01/27 03:51:19;;;;;;;6.82;5.55;;;20.10;32.40;;;;;;5053805;28;20413;-67
2022/01/27 03:53:46;;;;;;;7.60;5.55;;;20.20;32.40;;;;;;5053358;28;20417;-67
2022/01/27 03:56:11;;;;;;;7.35;5.32;;;20.10;32.40;;;;;;5054222;28;20381;-80
2022/01/27 03:58:37;;;;;;;7.40;5.67;;;20.10;32.40;;;;;;5054312;28;20396;-66
2022/01/27 04:01:04;;;;;;;7.32;5.45;;;20.10;32.40;;;;;;5053927;28;20392;-66
2022/01/27 04:03:33;;;;;;;7.75;5.68;;;20.10;32.40;;;;;;5054031;28;20378;-66
2022/01/27 04:06:05;;;;;;;8.32;6.10;;;20.10;32.20;;;;;;5053363;28;20493;-65
2022/01/27 04:08:32;;;;;;;8.90;6.00;;;20.10;32.50;;;;;;5053824;28;20393;-78
2022/01/27 04:10:57;;;;;;;8.65;5.90;;;20.20;32.90;;;;;;5053922;28;20411;-65
2022/01/27 04:13:23;;;;;;;9.60;6.22;;;20.30;33.60;;;;;;5036391;28;20917;-66
2022/01/27 04:15:49;;;;;;;8.63;6.43;;;20.40;33.80;;;;;;5053153;28;20393;-63
2022/01/27 04:18:15;;;;;;;8.20;6.00;;;20.40;33.60;;;;;;5053723;28;20378;-63
2022/01/27 04:20:41;;;;;;;8.90;5.70;;;20.40;33.70;;;;;;5053592;28;20393;-75
2022/01/27 04:23:09;;;;;;;9.07;6.07;;;20.40;34.20;;;;;;5053912;28;20389;-64
2022/01/27 04:25:37;;;;;;;10.60;6.43;;;20.40;33.70;;;;;;5053727;28;20476;-64
2022/01/27 04:28:07;;;;;;;10.77;6.25;;;20.40;34.90;;;;;;5035374;28;20948;-64
2022/01/27 04:30:33;;;;;;;9.30;6.53;;;20.40;34.80;;;;;;5053599;28;20389;-66
2022/01/27 04:33:01;;;;;;;9.73;6.30;;;20.50;34.90;;;;;;5053299;28;20427;-67
2022/01/27 04:35:31;;;;;;;8.50;5.90;;;20.50;35.00;;;;;;5035450;28;20386;-79
2022/01/27 04:38:07;;;;;;;9.20;6.03;;;20.50;35.00;;;;;;5053542;28;20881;-63
2022/01/27 04:40:50;;;;;;;13.52;6.30;;;20.50;35.00;;;;;;5038259;28;20393;-65
2022/01/27 04:48:29;;;;;;;10.95;5.63;;;20.60;34.40;;;;;;5053837;28;20374;-63
2022/01/27 04:50:58;;;;;;;8.68;5.32;;;20.60;34.60;;;;;;5053188;28;20808;-63
2022/01/27 04:53:31;;;;;;;7.20;5.18;;;20.70;34.70;;;;;;5035137;28;20436;-63
2022/01/27 04:55:58;;;;;;;8.25;5.53;;;20.70;34.60;;;;;;5052736;28;20389;-64
2022/01/27 04:58:31;;;;;;;7.22;5.10;;;20.70;34.30;;;;;;5053341;28;20865;-63
2022/01/27 05:01:02;;;;;;;8.18;5.70;;;20.70;34.50;;;;;;5053021;28;20385;-64
2022/01/27 05:03:44;;;;;;;9.27;5.28;;;20.70;34.40;;;;;;5036646;28;20938;-81
2022/01/27 05:06:10;;;;;;;9.15;4.90;;;20.60;34.50;;;;;;5052930;28;20390;-64
2022/01/27 05:08:35;;;;;;;8.50;5.10;;;20.60;34.40;;;;;;5052620;28;20389;-63
2022/01/27 05:11:17;;;;;;;6.65;4.95;;;20.60;34.70;;;;;;5035444;28;20894;-64
2022/01/27 05:14:18;;;;;;;7.18;4.93;;;20.50;34.70;;;;;;5052605;28;20417;-65
2022/01/27 05:16:34;;;;;;;8.13;4.95;;;20.50;34.10;;;;;;5049607;28;20474;-64
2022/01/27 05:19:00;;;;;;;6.82;4.88;;;20.50;34.30;;;;;;5052751;28;20536;-81
2022/01/27 05:21:26;;;;;;;7.30;5.03;;;20.50;34.50;;;;;;5052408;28;20388;-70
2022/01/27 05:23:51;;;;;;;7.35;4.97;;;20.50;33.90;;;;;;5051836;28;20421;-67
2022/01/27 05:26:17;;;;;;;8.13;4.93;;;20.50;33.80;;;;;;5034597;28;20454;-64
2022/01/27 05:28:43;;;;;;;8.15;4.78;;;20.40;33.60;;;;;;5052567;28;20389;-67
2022/01/27 05:31:09;;;;;;;7.90;4.93;;;20.40;33.80;;;;;;5049420;28;20404;-69
2022/01/27 05:33:34;;;;;;;6.88;4.80;;;20.40;33.60;;;;;;5033567;28;20424;-64
2022/01/27 05:36:00;;;;;;;7.38;5.20;;;20.40;33.40;;;;;;5051955;28;20378;-64
2022/01/27 05:38:26;;;;;;;7.30;4.80;;;20.40;33.90;;;;;;5051960;28;20476;-71
2022/01/27 05:40:52;;;;;;;8.20;4.97;;;20.40;34.00;;;;;;5051651;28;20473;-66
2022/01/27 05:43:18;;;;;;;8.75;4.88;;;20.40;33.90;;;;;;5051922;28;20389;-74
2022/01/27 05:45:44;;;;;;;7.17;4.70;;;20.40;34.10;;;;;;5052128;28;20900;-64
2022/01/27 05:48:10;;;;;;;6.80;4.80;;;20.40;34.40;;;;;;5051821;28;20801;-71
2022/01/27 05:50:36;;;;;;;6.53;4.15;;;20.50;34.00;;;;;;5051907;28;20401;-63
2022/01/27 05:53:03;;;;;;;7.27;4.83;;;20.40;33.80;;;;;;5051929;28;20954;-64
2022/01/27 05:55:29;;;;;;;7.70;4.93;;;20.50;33.80;;;;;;5052188;28;20393;-64
2022/01/27 05:57:55;;;;;;;8.13;5.25;;;20.50;33.70;;;;;;5051781;28;20469;-67
2022/01/27 06:00:21;;;;;;;6.57;4.60;;;20.50;33.90;;;;;;5052055;28;21526;-73
2022/01/27 06:02:46;;;;;;;8.97;4.73;;;20.50;33.40;;;;;;5052547;28;20408;-68
2022/01/27 06:05:12;;;;;;;7.10;4.70;;;20.40;33.30;;;;;;5051269;28;20738;-69
2022/01/27 06:07:38;;;;;;;6.70;4.95;;;20.50;33.40;;;;;;5051710;28;20873;-67
2022/01/27 06:10:05;;;;;;;8.77;4.90;;;20.40;33.70;;;;;;5051203;28;20393;-68
2022/01/27 06:12:30;;;;;;;6.70;4.78;;;20.40;34.20;;;;;;5051619;28;20946;-65
2022/01/27 06:14:56;;;;;;;6.37;4.77;;;20.50;33.90;;;;;;5051518;28;20401;-65
2022/01/27 06:17:22;;;;;;;7.30;4.90;;;20.50;33.60;;;;;;5050154;28;20389;-65
2022/01/27 06:19:48;;;;;;;8.37;4.80;;;20.40;33.50;;;;;;5033447;28;20405;-74
2022/01/27 06:22:14;;;;;;;7.07;4.88;;;20.40;33.30;;;;;;5050387;28;20374;-67
2022/01/27 06:24:42;;;;;;;8.73;5.20;;;20.40;34.00;;;;;;5033238;28;20409;-71
2022/01/27 06:27:09;;;;;;;6.28;4.78;;;20.40;34.60;;;;;;5050664;28;20888;-65
2022/01/27 06:29:35;;;;;;;8.18;4.90;;;20.40;34.80;;;;;;5051161;28;20857;-72
2022/01/27 06:32:02;;;;;;;8.02;4.80;;;20.50;34.80;;;;;;5050394;28;20385;-66
2022/01/27 06:34:28;;;;;;;7.63;5.45;;;20.50;34.80;;;;;;5033171;28;20417;-63
2022/01/27 06:36:53;;;;;;;7.93;5.10;;;20.60;35.20;;;;;;5051091;28;20442;-63
2022/01/27 06:39:19;;;;;;;6.30;4.68;;;20.60;35.30;;;;;;5050891;28;20451;-64
2022/01/27 06:41:45;;;;;;;7.03;4.77;;;20.60;35.30;;;;;;5051054;28;20472;-70
2022/01/27 06:44:11;;;;;;;6.68;4.82;;;20.70;35.50;;;;;;5051931;28;21136;-64
2022/01/27 06:46:37;;;;;;;6.00;4.63;;;20.70;35.50;;;;;;5055457;28;20385;-67
2022/01/27 06:49:04;;;;;;;7.65;4.85;;;20.70;35.50;;;;;;5050489;28;20996;-64
2022/01/27 06:51:30;;;;;;;6.63;4.63;;;20.70;35.40;;;;;;5052153;28;20483;-63
2022/01/27 06:53:56;;;;;;;9.43;5.00;;;20.70;35.00;;;;;;5054066;28;20782;-64
2022/01/27 06:56:22;;;;;;;7.78;4.78;;;20.70;34.70;;;;;;5054818;28;20393;-64
2022/01/27 06:58:48;;;;;;;5.73;4.20;;;20.70;35.00;;;;;;5054803;28;20396;-64
2022/01/27 07:01:13;;;;;;;6.97;4.53;;;20.60;35.10;;;;;;5054528;28;20388;-65
2022/01/27 07:03:39;;;;;;;5.90;4.40;;;20.60;35.00;;;;;;5054601;28;20749;-64
2022/01/27 07:06:05;;;;;;;6.13;4.40;;;20.60;34.90;;;;;;5054206;28;20373;-65
2022/01/27 07:08:30;;;;;;;6.77;4.67;;;20.60;34.90;;;;;;5054763;28;20401;-64
2022/01/27 07:10:56;;;;;;;7.50;4.75;;;20.60;34.80;;;;;;5054511;28;20383;-64
2022/01/27 07:13:22;;;;;;;6.03;4.37;;;20.60;34.70;;;;;;5054161;28;20404;-73
2022/01/27 07:15:47;;;;;;;6.60;4.20;;;20.60;34.70;;;;;;5053842;28;20393;-65
2022/01/27 07:18:14;;;;;;;6.50;4.37;;;20.50;34.40;;;;;;5054108;28;20923;-65
2022/01/27 07:20:39;;;;;;;6.10;4.45;;;20.50;34.20;;;;;;5054670;28;20484;-68
2022/01/27 07:23:09;;;;;;;5.03;4.05;;;20.50;34.10;;;;;;5054315;28;20405;-65
2022/01/27 07:25:35;;;;;;;7.25;4.70;;;20.60;34.20;;;;;;5054266;28;20466;-65
2022/01/27 07:28:01;;;;;;;6.43;4.40;;;20.50;34.10;;;;;;5053615;28;20687;-68
2022/01/27 07:30:27;;;;;;;6.03;4.40;;;20.50;34.00;;;;;;5036371;28;20916;-64
2022/01/27 07:32:52;;;;;;;6.93;4.20;;;20.50;34.10;;;;;;5054071;28;20428;-65
2022/01/27 07:35:18;;;;;;;7.10;4.90;;;20.50;34.10;;;;;;5054169;28;20421;-66
2022/01/27 07:37:45;;;;;;;9.50;5.90;;;20.60;33.90;;;;;;5054108;28;20745;-65
2022/01/27 07:40:12;;;;;;;8.27;5.40;;;20.60;33.90;;;;;;5053542;28;20484;-65
2022/01/27 07:42:38;;;;;;;7.97;5.07;;;20.50;34.00;;;;;;5053957;28;20445;-69
2022/01/27 07:45:05;;;;;;;8.57;5.00;;;20.60;34.00;;;;;;5053905;28;20523;-65
2022/01/27 07:47:30;;;;;;;8.43;5.00;;;20.60;33.90;;;;;;5054172;28;20390;-69
2022/01/27 07:49:56;;;;;;;7.35;5.20;;;20.60;33.80;;;;;;5053093;28;20905;-72
2022/01/27 07:52:22;;;;;;;7.80;4.97;;;20.60;33.60;;;;;;5053609;28;20441;-65
2022/01/27 07:54:48;;;;;;;7.83;4.80;;;20.70;33.50;;;;;;5053334;28;20443;-64
2022/01/27 07:57:14;;;;;;;7.38;5.05;;;20.70;33.50;;;;;;5053730;28;20798;-65
2022/01/27 07:59:39;;;;;;;6.53;4.82;;;20.70;33.40;;;;;;5035595;28;20483;-65
2022/01/27 08:02:05;;;;;;;6.87;4.57;;;20.70;33.30;;;;;;5053208;28;20385;-65
2022/01/27 08:04:31;;;;;;;7.18;5.00;;;20.80;33.20;;;;;;5053247;28;20401;-66
2022/01/27 08:06:57;;;;;;;8.52;5.28;;;20.80;33.10;;;;;;5053244;28;20393;-65
2022/01/27 08:09:23;;;;;;;6.97;4.60;;;20.80;33.10;;;;;;5053231;28;20400;-67
2022/01/27 08:11:49;;;;;;;7.20;5.00;;;20.90;33.10;;;;;;5053292;28;20382;-66
2022/01/27 08:14:15;;;;;;;7.43;4.87;;;20.90;32.80;;;;;;5053026;28;20508;-68
2022/01/27 08:16:41;;;;;;;7.75;5.05;;;20.90;33.00;;;;;;5053368;28;20381;-65
2022/01/27 08:19:07;;;;;;;6.97;5.10;;;20.90;32.90;;;;;;5053031;28;20394;-65
2022/01/27 08:21:33;;;;;;;7.33;5.17;;;20.90;32.70;;;;;;5053220;28;20901;-64
2022/01/27 08:23:59;;;;;;;7.32;5.00;;;20.80;32.80;;;;;;5052705;28;20486;-66
2022/01/27 08:26:32;;;;;;;6.93;5.18;;;20.80;32.80;;;;;;5053307;28;20385;-64
2022/01/27 08:29:19;;;;;;;7.73;5.10;;;20.80;32.70;;;;;;5053367;28;20400;-65
2022/01/27 08:32:02;;;;;;;7.30;4.88;;;20.80;32.70;;;;;;5053103;28;20385;-65
2022/01/27 08:34:34;;;;;;;6.55;4.80;;;20.80;32.60;;;;;;5053095;28;20424;-65
2022/01/27 08:37:05;;;;;;;7.72;5.22;;;20.80;32.60;;;;;;5053081;28;20373;-64
2022/01/27 08:39:31;;;;;;;6.68;4.90;;;20.90;32.60;;;;;;5053100;28;20386;-65
2022/01/27 08:41:57;;;;;;;7.00;4.90;;;20.90;32.40;;;;;;5052687;28;20452;-64
2022/01/27 08:44:23;;;;;;;6.95;5.05;;;20.90;32.30;;;;;;5052927;28;20816;-64
2022/01/27 08:46:49;;;;;;;6.82;5.10;;;21.00;32.30;;;;;;5034970;28;20420;-68
2022/01/27 08:49:17;;;;;;;6.18;4.85;;;21.00;32.30;;;;;;5052597;28;20432;-65
2022/01/27 08:51:42;;;;;;;7.40;5.00;;;21.00;32.10;;;;;;5052618;28;20396;-65
2022/01/27 08:54:08;;;;;;;6.70;4.90;;;21.00;32.10;;;;;;5052184;28;20409;-70
2022/01/27 08:56:34;;;;;;;6.70;4.93;;;21.00;32.10;;;;;;5052614;28;20390;-68
2022/01/27 08:58:59;;;;;;;7.32;5.10;;;21.10;32.10;;;;;;5052541;28;20389;-65
2022/01/27 09:01:27;;;;;;;6.25;4.40;;;21.10;32.10;;;;;;5052651;28;20413;-66
2022/01/27 09:03:53;;;;;;;6.53;4.90;;;21.10;31.90;;;;;;5052150;28;20495;-67
2022/01/27 09:06:19;;;;;;;6.85;4.93;;;21.10;32.00;;;;;;5051654;28;20727;-66
2022/01/27 09:08:46;;;;;;;5.95;4.90;;;21.10;31.90;;;;;;5052351;28;20531;-65
2022/01/27 09:11:12;;;;;;;6.40;5.00;;;21.10;31.80;;;;;;5052471;28;20377;-68
2022/01/27 09:13:38;;;;;;;6.60;4.63;;;21.20;31.90;;;;;;5052992;28;20412;-65
2022/01/27 09:16:05;;;;;;;6.55;4.90;;;21.20;31.80;;;;;;5051809;28;20382;-65
2022/01/27 09:18:32;;;;;;;5.87;4.43;;;21.20;31.80;;;;;;5052320;28;20394;-67
2022/01/27 09:21:01;;;;;;;6.65;4.90;;;21.20;31.80;;;;;;5052145;28;20385;-65
2022/01/27 09:23:27;;;;;;;6.43;4.72;;;21.20;31.80;;;;;;5052219;28;20901;-66
2022/01/27 09:25:56;;;;;;;5.40;4.45;;;21.20;31.70;;;;;;5051771;28;20397;-65
2022/01/27 09:28:22;;;;;;;6.13;4.32;;;21.20;31.80;;;;;;5051605;28;20452;-64
2022/01/27 09:30:48;;;;;;;5.75;4.15;;;21.30;31.80;;;;;;5052061;28;20405;-68
2022/01/27 09:33:14;;;;;;;6.43;4.43;;;21.30;31.80;;;;;;5051662;28;20418;-68
2022/01/27 09:35:40;;;;;;;5.82;4.28;;;21.30;31.70;;;;;;5051459;28;20404;-65
2022/01/27 09:38:06;;;;;;;5.70;4.38;;;21.40;31.80;;;;;;5051282;28;20484;-66
2022/01/27 09:40:34;;;;;;;5.40;4.50;;;21.40;31.60;;;;;;5051997;28;20385;-65
2022/01/27 09:43:00;;;;;;;5.25;4.22;;;21.30;31.60;;;;;;5033751;28;20389;-67
2022/01/27 09:45:28;;;;;;;6.18;4.43;;;21.30;31.80;;;;;;5051586;28;20409;-66
2022/01/27 09:47:56;;;;;;;5.38;4.13;;;21.40;31.80;;;;;;5051327;28;20746;-65
2022/01/27 09:52:50;;;;;;;5.18;4.07;;;21.40;31.70;;;;;;5051490;28;20437;-66
2022/01/27 09:55:15;;;;;;;5.50;4.00;;;21.40;31.70;;;;;;5051507;28;20436;-66
2022/01/27 09:57:45;;;;;;;4.88;3.90;;;21.40;31.60;;;;;;5050936;28;20417;-71
2022/01/27 10:00:12;;;;;;;5.30;4.13;;;21.50;31.90;;;;;;5050923;28;20472;-65
2022/01/27 10:02:39;;;;;;;4.80;3.88;;;21.50;31.40;;;;;;5033599;28;20762;-67
2022/01/27 10:05:05;;;;;;;5.55;4.00;;;21.50;31.60;;;;;;5051362;28;20386;-65
2022/01/27 10:07:42;;;;;;;4.45;3.40;;;21.50;31.70;;;;;;5051244;28;20440;-65
2022/01/27 10:10:12;;;;;;;4.37;3.70;;;21.60;31.70;;;;;;5033162;28;20881;-65
2022/01/27 10:12:43;;;;;;;5.55;3.83;;;21.60;31.50;;;;;;5051296;28;20400;-66
2022/01/27 10:15:13;;;;;;;5.22;4.03;;;21.60;31.10;;;;;;5051183;28;20401;-65
2022/01/27 10:18:08;;;;;;;5.72;3.90;;;21.60;31.20;;;;;;5033101;28;20416;-67
2022/01/27 10:20:38;;;;;;;4.90;3.92;;;21.60;31.30;;;;;;5050760;28;20400;-67
2022/01/27 10:23:30;;;;;;;4.43;3.40;;;21.60;31.30;;;;;;5051003;28;20451;-65
2022/01/27 10:26:07;;;;;;;4.93;3.55;;;21.50;31.30;;;;;;5050787;28;20464;-64
2022/01/27 10:31:19;;;;;;;4.45;3.58;;;21.50;31.50;;;;;;5051264;28;20403;-65
2022/01/27 10:33:50;;;;;;;5.13;3.58;;;21.50;31.50;;;;;;5050833;28;20775;-64
2022/01/27 10:36:27;;;;;;;4.68;3.50;;;21.50;31.40;;;;;;5032710;28;20398;-66
2022/01/27 10:38:56;;;;;;;4.70;3.58;;;21.50;31.40;;;;;;5050770;28;20381;-64
2022/01/27 10:41:23;;;;;;;4.00;3.30;;;21.60;31.40;;;;;;5050867;28;20446;-68
2022/01/27 10:43:49;;;;;;;4.10;3.20;;;21.60;31.40;;;;;;5050228;28;20398;-66
2022/01/27 10:46:25;;;;;;;3.90;3.10;;;21.60;31.40;;;;;;5050607;28;20448;-66
2022/01/27 10:49:05;;;;;;;4.45;3.05;;;21.60;31.40;;;;;;5050716;28;20412;-72
2022/01/27 10:51:40;;;;;;;3.70;3.00;;;21.70;31.40;;;;;;5050907;28;20424;-66
2022/01/27 10:54:16;;;;;;;4.32;3.60;;;21.70;31.40;;;;;;5049659;28;20415;-64
2022/01/27 10:56:42;;;;;;;4.40;3.10;;;21.80;31.70;;;;;;5047717;28;20393;-67
2022/01/27 10:59:14;;;;;;;4.47;3.20;;;21.80;33.30;;;;;;5049924;28;20397;-66
2022/01/27 11:01:45;;;;;;;4.10;2.85;;;21.80;32.50;;;;;;5048115;28;20429;-64
2022/01/27 11:04:13;;;;;;;5.53;3.38;;;21.90;32.50;;;;;;5030811;28;20777;-65
2022/01/27 11:06:57;;;;;;;5.32;3.25;;;21.90;33.80;;;;;;5049203;28;20948;-70
2022/01/27 11:09:23;;;;;;;4.50;3.17;;;22.00;32.20;;;;;;5044667;28;20478;-65
2022/01/27 11:11:52;;;;;;;4.38;3.40;;;22.00;32.60;;;;;;5048527;28;20402;-67
2022/01/27 11:14:19;;;;;;;4.60;3.10;;;22.00;32.60;;;;;;5049105;28;20429;-66
2022/01/27 11:16:47;;;;;;;4.40;3.33;;;22.10;32.80;;;;;;5049337;28;20413;-68
2022/01/27 11:21:41;;;;;;;3.88;3.08;;;22.30;33.00;;;;;;5049567;28;20476;-69
2022/01/27 11:24:16;;;;;;;3.67;2.90;;;22.30;33.00;;;;;;5048462;28;20536;-65
2022/01/27 11:26:45;;;;;;;3.45;2.80;;;22.40;33.10;;;;;;5044395;28;20381;-66
2022/01/27 11:29:14;;;;;;;3.53;2.75;;;22.40;33.10;;;;;;5030336;28;20916;-66
2022/01/27 11:32:03;;;;;;;3.83;2.42;;;22.50;32.80;;;;;;5050092;28;20829;-64
2022/01/27 11:34:44;;;;;;;3.72;2.58;;;23.00;34.60;;;;;;5051361;28;20420;-64
2022/01/27 11:37:10;;;;;;;3.38;2.50;;;23.40;33.80;;;;;;5050465;28;20921;-64
2022/01/27 11:39:49;;;;;;;3.08;2.53;;;23.60;34.00;;;;;;5052702;28;20385;-64
2022/01/27 11:42:18;;;;;;;4.70;2.40;;;23.60;33.30;;;;;;5050906;28;20946;-69
2022/01/27 11:44:45;;;;;;;3.43;2.33;;;23.70;33.00;;;;;;5049802;28;20386;-64
2022/01/27 11:47:12;;;;;;;3.10;2.40;;;23.70;33.00;;;;;;5052506;28;20444;-64
2022/01/27 11:50:35;;;;;;;3.95;2.55;;;23.80;32.70;;;;;;5052290;28;20444;-65
2022/01/27 11:53:12;;;;;;;3.10;2.25;;;24.00;32.50;;;;;;4935869;29;20426;-69
2022/01/27 11:55:43;;;;;;;3.47;2.38;;;24.10;32.40;;;;;;4936328;29;20433;-66
2022/01/27 11:58:14;;;;;;;2.92;2.47;;;24.10;32.20;;;;;;5021858;28;20415;-72
2022/01/27 12:00:40;;;;;;;3.50;2.40;;;24.20;32.10;;;;;;5053792;28;20897;-65
2022/01/27 12:03:12;;;;;;;4.68;2.20;;;24.40;32.40;;;;;;5053771;28;20421;-66
2022/01/27 12:05:41;;;;;;;2.92;2.22;;;24.50;32.00;;;;;;5053725;28;20390;-70
2022/01/27 12:08:13;;;;;;;3.80;2.20;;;24.50;31.90;;;;;;5053169;28;20483;-68
2022/01/27 12:10:46;;;;;;;3.38;1.85;;;24.60;31.70;;;;;;5035922;28;20417;-65
2022/01/27 12:13:49;;;;;;;3.63;2.30;;;24.70;31.70;;;;;;5053503;28;20428;-70
2022/01/27 12:19:04;;;;;;;3.28;1.90;;;24.80;31.30;;;;;;5053824;28;20398;-76
2022/01/27 12:21:36;;;;;;;3.40;2.20;;;25.00;31.10;;;;;;5053457;28;20919;-65
2022/01/27 12:24:32;;;;;;;3.08;2.10;;;25.00;31.10;;;;;;5053040;28;20385;-65
2022/01/27 12:27:05;;;;;;;2.60;2.10;;;25.10;30.90;;;;;;5052701;28;20394;-70
2022/01/27 12:29:34;;;;;;;3.08;2.30;;;25.20;30.70;;;;;;5035469;28;20719;-73
2022/01/27 12:32:09;;;;;;;2.75;2.15;;;25.30;30.70;;;;;;5053086;28;20405;-67
2022/01/27 12:34:37;;;;;;;2.75;1.90;;;25.30;30.60;;;;;;5053145;28;20416;-74
2022/01/27 12:37:08;;;;;;;3.45;1.90;;;25.40;30.40;;;;;;5053370;28;20385;-69
2022/01/27 12:39:42;;;;;;;2.65;1.83;;;25.40;30.40;;;;;;5053382;28;20397;-66
2022/01/27 12:42:13;;;;;;;2.63;1.90;;;25.50;30.30;;;;;;5050682;28;20886;-65
2022/01/27 12:44:42;;;;;;;2.92;1.80;;;25.40;31.00;;;;;;5034846;28;20398;-69
2022/01/27 12:47:14;;;;;;;2.63;1.80;;;25.40;30.10;;;;;;5052589;28;20385;-65
2022/01/27 12:49:43;;;;;;;2.20;1.70;;;25.40;30.10;;;;;;5052599;28;20492;-73
2022/01/27 12:52:12;;;;;;;2.20;1.70;;;25.40;30.10;;;;;;5034902;28;20394;-66
2022/01/27 12:54:39;;;;;;;2.47;1.63;;;25.40;30.00;;;;;;5052441;28;20553;-67
2022/01/27 12:57:06;;;;;;;2.50;1.67;;;25.50;30.00;;;;;;5051370;28;20552;-65
2022/01/27 12:59:38;;;;;;;2.40;1.70;;;25.40;30.00;;;;;;5052495;28;20393;-66
2022/01/27 13:02:07;;;;;;;2.42;1.83;;;25.40;30.00;;;;;;5052271;28;20389;-65
2022/01/27 13:04:34;;;;;;;2.35;1.65;;;25.50;30.00;;;;;;5052637;28;20417;-65
2022/01/27 13:07:00;;;;;;;2.47;1.80;;;25.50;29.90;;;;;;5052743;28;20394;-71
2022/01/27 13:09:28;;;;;;;2.17;1.67;;;25.60;30.00;;;;;;5053293;28;20389;-68
2022/01/27 13:11:56;;;;;;;2.10;1.60;;;25.60;29.90;;;;;;5052800;28;20397;-68
2022/01/27 13:14:22;;;;;;;2.10;1.60;;;25.60;29.90;;;;;;5052138;28;20809;-69
2022/01/27 13:16:54;;;;;;;2.30;1.70;;;25.60;29.80;;;;;;5052683;28;20472;-67
2022/01/27 13:19:36;;;;;;;2.70;1.60;;;25.70;29.80;;;;;;5052702;28;20401;-69
2022/01/27 13:22:05;;;;;;;2.97;1.60;;;25.70;29.80;;;;;;5034332;28;20504;-65
2022/01/27 13:24:34;;;;;;;2.40;1.60;;;25.80;29.70;;;;;;5034323;28;20476;-69
2022/01/27 13:27:08;;;;;;;1.90;1.70;;;25.80;29.70;;;;;;5052236;28;20402;-66
2022/01/27 13:29:45;;;;;;;2.50;1.50;;;25.80;29.70;;;;;;5034341;28;20401;-80
2022/01/27 13:32:12;;;;;;;2.13;1.50;;;25.80;29.60;;;;;;5051841;28;20385;-68
2022/01/27 13:34:47;;;;;;;2.10;1.40;;;25.90;29.60;;;;;;5052081;28;20482;-72
2022/01/27 13:37:13;;;;;;;2.13;1.58;;;25.90;29.60;;;;;;5052051;28;20488;-67
2022/01/27 13:42:20;;;;;;;1.80;1.50;;;25.90;29.50;;;;;;5051581;28;20712;-69
2022/01/27 13:45:01;;;;;;;2.40;1.50;;;25.90;29.50;;;;;;5051866;28;20924;-69
2022/01/27 13:47:35;;;;;;;1.80;1.40;;;25.90;29.40;;;;;;5051902;28;20435;-65
2022/01/27 13:50:10;;;;;;;2.05;1.52;;;26.00;29.40;;;;;;5051370;28;20409;-71